Boulder, Montana
Current Conditions -  °F | °C
As of 5:53 PM on Monday 24 Nov 2014 (Local Time) from KHLN Reporting Station
Clear Clear  
Wind Chill: 30°   Ceiling: Unl
Heat Index: 38°   Visibility: 10mi
Dew Point: 16°   Wind: 14mph
Humidity: 41%   Direction: 250°WSW
Pressure: 30.19"   Gusts: 22mph
Location:  46.24°N, 112.12°W
Report Text: KHLN 250053Z 25012G19KT 10SM CLR 03/M09 A3019 RMK AO2 SLP265 T00331089
Loading
Personal Weather Stations






























Interactive Weather Map New forecast layout! Learn more

10-Day Weather Forecast

Advertisements
Track Severe Weather on mobile